Time;durP1;ratioP1;P1;durP2;ratioP2;P2;SDS_P1;SDS_P2;PMS_P1;PMS_P2;Temp;Humidity;BMP_temperature;BMP_pressure;BME280_temperature;BME280_humidity;BME280_pressure;Samples;Min_cycle;Max_cycle;Signal;HPM_P1;HPM_P2
2023/04/21 00:00:34;;;;;;;21.00;14.50;;;;;;;10.56;55.52;100802.09;113206;1238;23087;-84
2023/04/21 00:03:22;;;;;;;20.60;15.00;;;;;;;10.53;55.56;100800.09;113338;1237;22025;-83
2023/04/21 00:06:00;;;;;;;26.60;15.30;;;;;;;10.52;55.48;100797.86;113473;1237;22032;-84
2023/04/21 00:08:40;;;;;;;21.00;15.60;;;;;;;10.49;55.34;100793.09;113293;1237;21941;-83
2023/04/21 00:11:17;;;;;;;20.30;15.90;;;;;;;10.46;55.50;100795.60;112811;1242;21984;-86
2023/04/21 00:13:57;;;;;;;45.90;19.40;;;;;;;10.42;55.40;100793.27;112104;1247;22433;-83
2023/04/21 00:16:34;;;;;;;;;;;;;;;10.39;55.40;100790.60;112357;1244;21934;-84
2023/04/21 00:19:12;;;;;;;22.30;17.40;;;;;;;10.28;55.59;100792.62;111918;1248;21993;-83
2023/04/21 00:21:42;;;;;;;20.90;15.80;;;;;;;10.28;55.79;100791.59;112038;1248;22034;-82
2023/04/21 00:24:28;;;;;;;20.70;15.60;;;;;;;10.28;55.75;100794.70;112115;1248;21951;-83
2023/04/21 00:27:10;;;;;;;43.60;18.40;;;;;;;10.28;55.84;100793.15;112196;1248;22715;-85
2023/04/21 00:29:51;;;;;;;127.20;26.90;;;;;;;10.27;55.78;100788.64;112200;1243;21956;-84
2023/04/21 00:32:37;;;;;;;51.70;22.40;;;;;;;10.28;55.87;100786.89;113003;1238;21980;-82
2023/04/21 00:35:25;;;;;;;27.40;16.40;;;;;;;10.26;55.95;100786.75;113050;1238;23671;-82
2023/04/21 00:37:55;;;;;;;31.00;17.30;;;;;;;10.23;55.90;100788.75;113637;1231;21916;-84
2023/04/21 00:40:40;;;;;;;26.50;15.90;;;;;;;10.19;55.94;100787.48;113910;1231;21974;-84
2023/04/21 00:43:12;;;;;;;22.20;16.20;;;;;;;10.15;55.94;100786.23;113875;1232;22159;-83
2023/04/21 00:45:53;;;;;;;27.30;16.90;;;;;;;10.13;56.07;100789.21;113994;1231;23025;-82
2023/04/21 00:48:29;;;;;;;25.90;16.50;;;;;;;10.12;56.11;100788.57;113998;1231;21907;-82
2023/04/21 00:51:06;;;;;;;22.50;18.10;;;;;;;10.10;56.26;100787.58;113446;1238;21950;-82
2023/04/21 00:53:50;;;;;;;20.80;17.00;;;;;;;10.09;56.29;100786.56;112942;1232;21947;-83
2023/04/21 00:56:36;;;;;;;20.50;17.30;;;;;;;10.07;56.35;100789.22;113433;1238;22691;-83
2023/04/21 00:59:11;;;;;;;25.40;17.70;;;;;;;10.05;56.48;100785.45;112957;1238;21970;-83
2023/04/21 01:01:55;;;;;;;24.90;17.50;;;;;;;10.04;56.46;100786.88;113153;1238;21974;-84
2023/04/21 01:04:39;;;;;;;17.80;15.90;;;;;;;10.03;56.45;100785.53;113237;1238;22894;-83
2023/04/21 01:07:18;;;;;;;24.30;15.70;;;;;;;10.00;56.56;100780.74;113271;1238;23773;-84
2023/04/21 01:10:00;;;;;;;25.00;15.50;;;;;;;9.96;56.57;100784.32;113639;1231;24267;-84
2023/04/21 01:12:51;;;;;;;19.40;15.30;;;;;;;9.92;56.64;100785.46;114035;1231;24261;-84
2023/04/21 01:15:32;;;;;;;21.20;16.60;;;;;;;9.89;56.73;100786.43;113425;1237;23717;-84
2023/04/21 01:18:20;;;;;;;19.80;15.20;;;;;;;9.90;56.71;100788.48;113340;1236;21987;-83
2023/04/21 01:21:07;;;;;;;18.80;15.80;;;;;;;9.89;56.75;100790.27;113404;1236;21955;-82
2023/04/21 01:23:48;;;;;;;16.80;15.10;;;;;;;9.89;56.81;100789.22;113332;1237;22013;-85
2023/04/21 01:26:32;;;;;;;18.70;15.20;;;;;;;9.89;56.87;100788.36;112824;1237;24377;-84
2023/04/21 01:29:10;;;;;;;23.80;16.20;;;;;;;9.84;56.99;100785.17;113418;1237;23011;-82
2023/04/21 01:31:56;;;;;;;21.30;15.80;;;;;;;9.85;56.85;100783.77;113390;1237;21982;-83
2023/04/21 01:34:34;;;;;;;21.10;16.30;;;;;;;9.80;57.00;100784.77;113214;1237;21970;-84
2023/04/21 01:37:22;;;;;;;19.70;16.20;;;;;;;9.77;56.95;100785.73;113169;1236;23201;-80
2023/04/21 01:40:11;;;;;;;20.00;15.70;;;;;;;9.74;57.06;100784.40;113595;1232;22408;-83
2023/04/21 01:42:45;;;;;;;18.30;15.80;;;;;;;9.72;57.15;100781.15;113751;1231;22995;-84
2023/04/21 01:45:17;;;;;;;19.10;15.20;;;;;;;9.73;57.20;100779.40;112765;1239;21902;-84
2023/04/21 01:48:04;;;;;;;27.00;16.30;;;;;;;9.74;57.23;100777.98;113112;1239;21966;-84
2023/04/21 01:50:38;;;;;;;18.40;15.90;;;;;;;9.75;57.32;100778.13;112675;1245;22143;-84
2023/04/21 01:53:23;;;;;;;29.00;15.90;;;;;;;9.76;57.38;100776.55;112389;1245;21947;-83
2023/04/21 01:55:57;;;;;;;20.50;15.00;;;;;;;9.76;57.24;100777.95;112421;1245;22648;-84
2023/04/21 01:58:41;;;;;;;16.70;14.60;;;;;;;9.73;57.12;100774.52;112281;1247;23015;-84
2023/04/21 02:01:15;;;;;;;19.40;15.00;;;;;;;9.70;57.19;100777.57;112187;1247;22089;-85
2023/04/21 02:03:52;;;;;;;16.40;14.60;;;;;;;9.67;57.17;100777.50;112618;1240;22836;-85
2023/04/21 02:06:35;;;;;;;18.50;15.40;;;;;;;9.63;57.27;100773.59;112882;1241;21933;-84
2023/04/21 02:09:09;;;;;;;18.90;15.50;;;;;;;9.62;57.31;100775.73;113272;1235;21957;-85
2023/04/21 02:11:46;;;;;;;20.60;15.40;;;;;;;9.59;57.42;100770.39;113938;1235;23604;-83
2023/04/21 02:14:18;;;;;;;17.80;15.90;;;;;;;9.59;57.47;100770.91;113446;1235;23038;-83
2023/04/21 02:16:51;;;;;;;24.00;16.50;;;;;;;9.59;57.53;100776.30;113641;1235;21931;-86
2023/04/21 02:19:36;;;;;;;17.40;14.80;;;;;;;9.57;57.54;100774.95;113714;1235;21953;-84
2023/04/21 02:22:11;;;;;;;32.80;17.40;;;;;;;9.54;57.63;100774.00;113695;1235;24114;-85
2023/04/21 02:24:50;;;;;;;24.00;17.80;;;;;;;9.51;57.54;100774.59;113597;1235;22999;-85
2023/04/21 02:27:28;;;;;;;20.20;15.90;;;;;;;9.46;57.71;100774.91;112466;1243;24368;-84
2023/04/21 02:30:17;;;;;;;22.20;16.90;;;;;;;9.42;57.76;100774.34;112748;1239;21949;-83
2023/04/21 02:32:56;;;;;;;18.70;16.30;;;;;;;9.39;57.90;100775.11;113207;1238;22562;-82
2023/04/21 02:35:32;;;;;;;21.00;16.50;;;;;;;9.36;58.00;100775.52;113371;1238;23653;-83
2023/04/21 02:38:07;;;;;;;21.00;17.50;;;;;;;9.36;58.13;100774.99;113255;1238;21967;-82
2023/04/21 02:40:39;;;;;;;18.50;16.20;;;;;;;9.37;58.15;100777.08;113232;1238;21953;-82
2023/04/21 02:43:27;;;;;;;18.50;16.30;;;;;;;9.37;58.05;100780.02;113392;1238;22853;-84
2023/04/21 02:46:10;;;;;;;17.30;15.50;;;;;;;9.36;58.20;100779.85;113819;1231;22046;-85
2023/04/21 02:49:16;;;;;;;20.00;16.20;;;;;;;9.34;58.36;100780.06;113835;1231;21961;-84
2023/04/21 02:52:06;;;;;;;18.80;15.60;;;;;;;9.32;58.37;100782.22;113780;1231;21965;-83
2023/04/21 02:54:41;;;;;;;26.70;16.00;;;;;;;9.30;58.40;100781.06;113901;1231;22629;-82
2023/04/21 02:57:18;;;;;;;18.00;15.90;;;;;;;9.28;58.37;100777.82;113804;1232;21932;-83
2023/04/21 02:59:52;;;;;;;22.10;17.70;;;;;;;9.24;58.19;100778.08;113796;1231;21947;-83
2023/04/21 03:02:25;;;;;;;20.80;16.00;;;;;;;9.21;58.25;100775.04;113194;1238;21957;-85
2023/04/21 03:04:57;;;;;;;22.70;16.20;;;;;;;9.16;58.46;100775.67;113341;1238;21960;-83
2023/04/21 03:07:37;;;;;;;24.70;17.30;;;;;;;9.13;58.49;100775.92;113324;1238;21949;-82
2023/04/21 03:10:18;;;;;;;25.50;17.40;;;;;;;9.09;58.59;100777.24;113344;1238;21953;-84
2023/04/21 03:12:52;;;;;;;22.80;17.30;;;;;;;9.05;58.75;100779.44;113288;1238;22077;-85
2023/04/21 03:15:34;;;;;;;21.60;18.30;;;;;;;9.02;58.78;100773.94;112759;1242;21943;-86
2023/04/21 03:18:31;;;;;;;31.10;20.30;;;;;;;8.99;58.88;100774.88;112715;1242;23107;-83
2023/04/21 03:21:07;;;;;;;23.80;20.40;;;;;;;8.96;58.82;100778.25;112395;1242;22954;-82
2023/04/21 03:23:44;;;;;;;28.30;20.90;;;;;;;8.91;58.80;100778.19;112368;1242;22321;-82
2023/04/21 03:26:29;;;;;;;23.70;20.20;;;;;;;8.86;58.92;100778.16;112422;1242;21989;-83
2023/04/21 03:29:10;;;;;;;23.20;19.60;;;;;;;8.82;59.12;100780.33;112569;1243;24134;-79
2023/04/21 03:31:46;;;;;;;24.90;18.40;;;;;;;8.79;59.14;100781.44;112597;1242;22451;-83
2023/04/21 03:34:26;;;;;;;33.00;18.70;;;;;;;8.79;59.22;100782.31;112959;1238;21996;-83
2023/04/21 03:37:14;;;;;;;;;;;;;;;8.79;59.33;100781.95;113248;1238;21960;-81
2023/04/21 03:40:04;;;;;;;42.70;31.40;;;;;;;8.72;59.50;100782.64;113082;1238;21964;-83
2023/04/21 03:42:57;;;;;;;33.80;26.30;;;;;;;8.74;59.55;100783.64;113056;1238;23005;-82
2023/04/21 03:45:49;;;;;;;26.30;22.20;;;;;;;8.77;59.61;100784.60;113433;1232;21957;-82
2023/04/21 03:48:36;;;;;;;28.60;21.00;;;;;;;8.79;59.55;100785.09;114018;1232;21940;-83
2023/04/21 03:51:33;;;;;;;32.40;20.10;;;;;;;8.79;59.46;100785.95;113926;1232;21937;-82
2023/04/21 03:54:19;;;;;;;35.10;20.80;;;;;;;8.80;59.52;100789.05;113817;1225;23792;-82
2023/04/21 03:57:03;;;;;;;25.60;19.10;;;;;;;8.80;59.57;100789.23;113861;1231;22412;-82
2023/04/21 03:59:44;;;;;;;25.60;19.30;;;;;;;8.79;59.58;100790.11;113752;1231;24345;-83
2023/04/21 04:02:41;;;;;;;22.70;19.30;;;;;;;8.77;59.51;100787.73;113949;1231;21941;-82
2023/04/21 04:05:34;;;;;;;24.60;20.10;;;;;;;8.75;59.47;100790.55;113954;1231;21963;-82
2023/04/21 04:08:30;;;;;;;33.10;20.30;;;;;;;8.75;59.58;100790.38;113975;1231;21954;-82
2023/04/21 04:11:18;;;;;;;26.10;20.00;;;;;;;8.77;59.64;100792.06;113897;1231;23601;-82
2023/04/21 04:14:13;;;;;;;25.20;18.10;;;;;;;8.82;59.68;100792.83;112954;1239;22861;-83
2023/04/21 04:17:04;;;;;;;20.90;17.40;;;;;;;8.86;59.65;100797.42;113255;1239;22420;-81
2023/04/21 04:20:08;;;;;;;24.20;18.30;;;;;;;8.88;59.64;100799.30;113328;1239;21954;-82
2023/04/21 04:22:53;;;;;;;19.90;16.70;;;;;;;8.91;59.58;100801.98;112604;1244;23044;-82
2023/04/21 04:25:37;;;;;;;22.90;17.00;;;;;;;8.97;59.56;100805.32;112668;1243;22000;-82
2023/04/21 04:28:09;;;;;;;19.90;16.10;;;;;;;9.02;59.52;100810.58;112556;1242;23594;-82
2023/04/21 04:30:49;;;;;;;20.60;16.80;;;;;;;9.07;59.46;100812.20;112628;1242;21973;-82
2023/04/21 04:33:26;;;;;;;27.10;16.30;;;;;;;9.13;59.42;100811.52;113233;1237;21939;-81
2023/04/21 04:36:27;;;;;;;;;;;;;;;9.20;59.37;100811.55;113220;1238;22080;-81
2023/04/21 04:39:21;;;;;;;26.40;15.90;;;;;;;9.17;59.33;100813.00;113462;1238;21954;-82
2023/04/21 04:42:02;;;;;;;19.40;15.70;;;;;;;9.20;59.17;100813.27;113804;1231;21905;-83
2023/04/21 04:44:51;;;;;;;20.50;15.40;;;;;;;9.26;59.07;100810.87;113611;1233;23575;-82
2023/04/21 04:47:40;;;;;;;22.00;17.30;;;;;;;9.33;59.00;100807.39;113033;1237;21953;-82
2023/04/21 04:50:23;;;;;;;23.50;17.40;;;;;;;9.45;59.07;100812.99;113336;1237;23091;-82
2023/04/21 04:53:09;;;;;;;33.00;17.60;;;;;;;9.58;59.03;100810.38;113265;1237;23338;-83
2023/04/21 04:56:00;;;;;;;24.80;17.20;;;;;;;9.74;58.94;100815.16;113018;1238;21961;-83
2023/04/21 04:58:52;;;;;;;24.40;18.00;;;;;;;9.91;58.60;100817.67;113148;1237;22009;-82
2023/04/21 05:01:50;;;;;;;20.40;17.10;;;;;;;10.06;58.33;100818.30;113253;1237;23085;-81
2023/04/21 05:04:28;;;;;;;19.40;17.30;;;;;;;10.19;57.97;100822.46;113091;1237;21957;-83
2023/04/21 05:07:11;;;;;;;23.80;16.80;;;;;;;10.31;57.66;100823.52;113842;1232;22158;-84
2023/04/21 05:09:59;;;;;;;20.30;16.60;;;;;;;10.42;57.49;100821.64;113908;1232;21964;-84
2023/04/21 05:12:34;;;;;;;22.20;16.10;;;;;;;10.51;56.92;100811.10;113906;1232;21954;-83
2023/04/21 05:15:13;;;;;;;21.30;16.30;;;;;;;10.58;56.54;100804.64;113752;1231;21960;-82
2023/04/21 05:17:52;;;;;;;25.60;17.10;;;;;;;10.66;56.41;100809.23;113621;1232;22844;-80
2023/04/21 05:20:39;;;;;;;20.30;16.20;;;;;;;10.83;56.69;100809.77;113475;1237;21942;-80
2023/04/21 05:23:23;;;;;;;19.40;14.50;;;;;;;11.04;56.36;100811.73;113114;1237;23613;-81
2023/04/21 05:26:07;;;;;;;26.30;15.20;;;;;;;11.18;55.85;100810.41;113577;1237;21973;-81
2023/04/21 05:28:51;;;;;;;17.80;15.90;;;;;;;11.34;55.67;100814.23;113406;1236;21966;-83
2023/04/21 05:31:37;;;;;;;23.80;15.90;;;;;;;11.53;55.43;100813.39;113410;1230;21941;-82
2023/04/21 05:34:26;;;;;;;18.30;14.90;;;;;;;11.76;55.15;100812.78;113576;1237;23571;-81
2023/04/21 05:37:03;;;;;;;20.40;15.60;;;;;;;11.97;54.64;100808.55;112752;1242;22071;-83
2023/04/21 05:40:00;;;;;;;14.90;12.50;;;;;;;12.08;53.60;100806.23;112926;1237;24480;-82
2023/04/21 05:42:45;;;;;;;21.20;14.30;;;;;;;12.17;53.54;100805.92;113113;1238;21972;-83
2023/04/21 05:45:25;;;;;;;16.70;13.80;;;;;;;12.36;53.26;100802.23;113581;1237;22039;-84
2023/04/21 05:48:07;;;;;;;;;;;;;;;12.47;52.76;100804.63;113449;1237;22987;-84
2023/04/21 05:50:54;;;;;;;14.60;13.00;;;;;;;12.62;53.51;100806.66;113246;1237;23591;-80
2023/04/21 05:53:28;;;;;;;18.20;12.00;;;;;;;12.95;53.36;100810.25;112621;1242;23025;-82
2023/04/21 05:56:16;;;;;;;13.90;12.40;;;;;;;13.17;52.33;100811.26;112295;1244;21983;-83
2023/04/21 05:59:20;;;;;;;15.40;12.40;;;;;;;13.44;52.10;100810.50;112515;1244;23676;-81
2023/04/21 06:01:58;;;;;;;13.40;11.90;;;;;;;13.77;51.35;100807.21;112710;1244;21913;-81
2023/04/21 06:04:32;;;;;;;13.30;11.40;;;;;;;14.09;51.09;100806.48;112530;1244;21933;-83
2023/04/21 06:07:36;;;;;;;24.70;12.50;;;;;;;14.51;50.70;100806.33;112476;1244;23697;-81
2023/04/21 06:10:16;;;;;;;17.10;11.10;;;;;;;14.99;49.87;100810.54;112515;1244;21961;-82
2023/04/21 06:13:07;;;;;;;22.00;12.80;;;;;;;15.40;48.99;100808.34;113049;1238;21960;-82
2023/04/21 06:15:52;;;;;;;16.50;12.00;;;;;;;15.84;48.36;100808.55;113822;1231;22736;-81
2023/04/21 06:18:29;;;;;;;17.10;12.50;;;;;;;16.20;47.26;100803.45;113838;1231;21966;-82
2023/04/21 06:21:16;;;;;;;18.60;13.30;;;;;;;16.50;46.29;100802.55;113886;1231;23562;-82
2023/04/21 06:23:51;;;;;;;21.20;13.40;;;;;;;16.83;45.54;100805.66;113978;1231;22384;-81
2023/04/21 06:26:43;;;;;;;18.00;12.10;;;;;;;17.07;44.76;100806.55;114023;1231;22950;-83
2023/04/21 06:29:31;;;;;;;;;;;;;;;;;;;;;
2023/04/21 06:32:03;;;;;;;16.20;10.70;;;;;;;17.49;43.37;100803.92;113929;1231;23689;-82
2023/04/21 06:34:49;;;;;;;33.60;12.50;;;;;;;17.70;43.07;100807.60;113952;1231;21989;-81
2023/04/21 06:37:26;;;;;;;14.60;10.70;;;;;;;18.00;42.81;100804.40;113979;1231;22686;-82
2023/04/21 06:40:32;;;;;;;14.00;11.00;;;;;;;18.25;42.02;100806.54;113755;1231;21895;-81
2023/04/21 06:43:15;;;;;;;15.10;10.40;;;;;;;18.44;41.00;100803.61;113874;1231;21969;-84
2023/04/21 06:46:06;;;;;;;14.90;10.40;;;;;;;18.49;40.27;100800.08;113659;1231;21931;-82
2023/04/21 06:48:45;;;;;;;16.50;10.40;;;;;;;18.56;39.97;100798.94;113780;1231;23642;-83
2023/04/21 06:51:27;;;;;;;18.10;10.90;;;;;;;18.60;39.83;100797.67;113555;1238;21954;-82
2023/04/21 06:54:07;;;;;;;18.40;10.10;;;;;;;18.67;39.26;100795.95;113289;1238;21956;-79
2023/04/21 06:56:44;;;;;;;13.00;9.40;;;;;;;18.71;39.58;100797.09;112703;1238;21941;-78
2023/04/21 06:59:29;;;;;;;12.50;10.10;;;;;;;18.85;38.79;100796.42;112887;1238;22832;-84
2023/04/21 07:02:13;;;;;;;12.30;9.30;;;;;;;18.90;38.74;100795.55;113376;1238;21964;-83
2023/04/21 07:04:44;;;;;;;18.40;12.00;;;;;;;19.00;38.51;100797.00;112525;1246;22062;-83
2023/04/21 07:07:25;;;;;;;13.60;10.70;;;;;;;19.12;38.31;100793.45;112721;1245;22815;-83
2023/04/21 07:10:04;;;;;;;13.00;10.10;;;;;;;19.35;38.27;100794.17;112421;1245;22012;-84
2023/04/21 07:12:35;;;;;;;16.80;10.30;;;;;;;19.65;37.91;100798.83;111961;1250;22034;-84
2023/04/21 07:15:09;;;;;;;29.60;10.90;;;;;;;19.98;37.46;100796.95;111576;1252;21970;-84
2023/04/21 07:17:44;;;;;;;10.80;9.70;;;;;;;20.23;36.53;100801.16;111921;1250;23543;-85
2023/04/21 07:20:14;;;;;;;12.20;10.10;;;;;;;20.49;36.46;100803.75;111936;1250;22109;-83
2023/04/21 07:22:49;;;;;;;12.50;9.40;;;;;;;20.71;36.05;100805.20;112171;1244;21964;-83
2023/04/21 07:25:28;;;;;;;10.80;9.60;;;;;;;20.88;35.74;100807.30;112782;1243;22941;-83
2023/04/21 07:28:07;;;;;;;12.50;9.30;;;;;;;20.98;35.04;100810.98;112665;1243;21966;-84
2023/04/21 07:30:48;;;;;;;11.50;9.30;;;;;;;21.10;34.95;100814.48;112899;1239;21944;-83
2023/04/21 07:33:22;;;;;;;9.60;8.50;;;;;;;21.15;34.49;100807.81;113438;1232;22856;-82
2023/04/21 07:35:51;;;;;;;13.00;8.90;;;;;;;21.19;34.07;100805.66;113957;1232;21917;-84
2023/04/21 07:38:20;;;;;;;14.30;9.50;;;;;;;21.21;34.06;100804.11;114030;1225;23063;-83
2023/04/21 07:41:07;;;;;;;13.80;10.60;;;;;;;21.33;34.11;100803.56;114031;1232;21937;-86
2023/04/21 07:43:41;;;;;;;12.20;9.80;;;;;;;21.48;33.79;100798.61;114055;1231;22944;-83
2023/04/21 07:46:22;;;;;;;11.20;9.60;;;;;;;21.62;34.04;100800.00;114102;1231;21956;-85
2023/04/21 07:49:06;;;;;;;12.70;9.30;;;;;;;21.85;33.45;100798.55;114131;1231;21959;-82
2023/04/21 07:51:48;;;;;;;11.10;9.30;;;;;;;21.98;33.09;100794.73;113910;1232;22011;-84
2023/04/21 07:54:30;;;;;;;12.60;8.90;;;;;;;22.09;32.73;100794.92;114078;1232;23571;-84
2023/04/21 07:57:06;;;;;;;10.70;9.40;;;;;;;22.25;32.68;100791.02;114170;1231;21974;-85
2023/04/21 07:59:54;;;;;;;11.10;9.40;;;;;;;22.49;32.13;100790.84;114174;1232;21966;-84
2023/04/21 08:02:32;;;;;;;13.00;9.40;;;;;;;22.53;31.19;100789.48;113601;1237;23603;-84
2023/04/21 08:05:06;;;;;;;10.10;9.00;;;;;;;22.63;31.66;100785.68;113400;1237;21908;-84
2023/04/21 08:07:50;;;;;;;17.70;9.80;;;;;;;22.89;31.66;100779.75;113587;1237;22886;-82
2023/04/21 08:10:22;;;;;;;17.10;10.60;;;;;;;23.24;31.67;100785.73;113515;1237;21953;-83
2023/04/21 08:13:02;;;;;;;16.60;9.50;;;;;;;23.52;30.99;100787.86;113600;1237;21964;-85
2023/04/21 08:15:50;;;;;;;12.60;8.80;;;;;;;23.68;31.09;100788.92;113311;1237;22799;-84
2023/04/21 08:18:28;;;;;;;11.30;8.90;;;;;;;23.87;30.29;100789.68;112845;1242;21982;-84
2023/04/21 08:21:19;;;;;;;10.50;8.20;;;;;;;23.74;30.11;100788.05;112358;1245;22176;-85
2023/04/21 08:24:06;;;;;;;9.70;8.70;;;;;;;23.83;30.16;100789.13;112729;1243;21971;-84
2023/04/21 08:26:56;;;;;;;11.40;8.40;;;;;;;23.92;29.71;100787.45;112375;1249;23002;-85
2023/04/21 08:29:49;;;;;;;11.90;7.90;;;;;;;24.17;29.79;100781.55;112283;1249;21957;-84
2023/04/21 08:35:28;;;;;;;8.60;7.70;;;;;;;24.32;28.32;100784.09;112111;1249;21971;-84
2023/04/21 08:38:02;;;;;;;10.20;6.90;;;;;;;24.27;27.94;100781.18;112535;1244;21981;-84
2023/04/21 08:40:53;;;;;;;10.50;8.70;;;;;;;24.46;28.46;100780.05;113727;1238;22099;-90
2023/04/21 08:43:31;;;;;;;10.70;7.80;;;;;;;24.83;28.17;100782.90;113092;1238;23083;-85
2023/04/21 08:46:08;;;;;;;14.40;8.40;;;;;;;25.14;27.80;100784.32;113875;1231;23565;-83
2023/04/21 08:48:39;;;;;;;11.80;8.20;;;;;;;25.43;27.67;100781.38;113930;1231;24284;-84
2023/04/21 08:51:21;;;;;;;15.90;8.20;;;;;;;25.69;27.32;100784.06;113827;1231;21957;-85
2023/04/21 08:54:07;;;;;;;9.80;7.60;;;;;;;25.93;26.82;100785.71;113838;1232;22086;-84
2023/04/21 08:56:53;;;;;;;9.80;7.60;;;;;;;25.83;26.06;100781.63;113916;1231;21978;-85
2023/04/21 08:59:51;;;;;;;12.30;8.20;;;;;;;25.71;26.36;100780.66;113468;1238;22806;-82
2023/04/21 09:02:34;;;;;;;12.90;7.10;;;;;;;25.94;26.56;100784.22;113351;1235;22923;-81
2023/04/21 09:05:08;;;;;;;8.80;7.20;;;;;;;26.02;26.28;100780.45;113648;1238;21995;-82
2023/04/21 09:07:41;;;;;;;16.70;8.30;;;;;;;26.26;26.31;100776.48;113584;1238;22690;-83
2023/04/21 09:10:10;;;;;;;20.40;7.90;;;;;;;26.46;25.89;100772.42;113185;1238;21939;-83
2023/04/21 09:12:57;;;;;;;10.90;7.90;;;;;;;26.64;25.82;100774.17;113760;1238;21983;-82
2023/04/21 09:15:38;;;;;;;9.90;7.50;;;;;;;26.80;25.25;100774.21;113301;1238;23038;-83
2023/04/21 09:18:19;;;;;;;9.70;7.60;;;;;;;26.91;25.16;100772.62;113694;1231;21929;-82
2023/04/21 09:21:05;;;;;;;9.80;6.80;;;;;;;27.01;24.60;100766.41;114069;1231;22953;-81
2023/04/21 09:23:54;;;;;;;10.10;7.30;;;;;;;27.09;24.67;100767.63;113772;1231;22689;-81
2023/04/21 09:26:34;;;;;;;12.80;7.40;;;;;;;27.13;24.68;100762.49;113777;1231;21972;-82
2023/04/21 09:29:29;;;;;;;10.00;6.90;;;;;;;27.31;24.45;100767.16;113605;1236;23679;-81
2023/04/21 09:32:07;;;;;;;11.10;7.60;;;;;;;27.38;24.11;100763.36;113683;1236;23005;-81
2023/04/21 09:34:50;;;;;;;9.70;7.00;;;;;;;27.61;23.78;100752.08;113297;1237;24320;-80
2023/04/21 09:37:39;;;;;;;9.60;6.80;;;;;;;27.43;23.28;100755.35;113715;1236;21954;-85
2023/04/21 09:40:49;;;;;;;14.50;7.20;;;;;;;27.14;23.58;100751.55;113915;1236;21947;-80
2023/04/21 09:43:31;;;;;;;7.80;6.90;;;;;;;27.17;23.91;100753.91;113504;1236;22003;-79
2023/04/21 09:46:08;;;;;;;21.30;6.70;;;;;;;27.30;23.52;100751.38;113135;1236;21937;-79
2023/04/21 09:48:59;;;;;;;7.70;5.90;;;;;;;27.20;23.12;100747.91;113973;1232;21950;-79
2023/04/21 09:51:38;;;;;;;10.40;5.80;;;;;;;27.26;23.48;100748.20;114088;1232;21932;-80
2023/04/21 09:54:32;;;;;;;9.20;5.60;;;;;;;27.56;22.93;100747.58;114101;1232;21950;-79
2023/04/21 09:57:09;;;;;;;9.80;6.50;;;;;;;27.61;22.57;100748.59;113544;1232;21944;-80
2023/04/21 09:59:50;;;;;;;15.60;6.90;;;;;;;27.51;22.45;100741.54;113799;1232;21936;-81
2023/04/21 10:02:46;;;;;;;9.60;5.60;;;;;;;27.40;22.36;100742.48;109861;1227;5143018;-81
2023/04/21 10:05:28;;;;;;;10.00;4.90;;;;;;;27.33;22.15;100742.36;113812;1232;22951;-80
2023/04/21 10:08:05;;;;;;;13.00;5.00;;;;;;;27.16;22.43;100738.13;113323;1237;23778;-80
2023/04/21 10:10:37;;;;;;;12.20;4.90;;;;;;;27.25;22.08;100735.05;113528;1237;21963;-80
2023/04/21 10:13:17;;;;;;;7.80;4.40;;;;;;;27.12;21.55;100737.42;113407;1237;21965;-80
2023/04/21 10:16:03;;;;;;;8.50;4.30;;;;;;;26.71;21.08;100741.16;113463;1237;21966;-80
2023/04/21 10:18:52;;;;;;;10.80;4.70;;;;;;;26.36;21.38;100735.33;113545;1237;22882;-80
2023/04/21 10:21:28;;;;;;;9.70;4.40;;;;;;;26.37;22.15;100732.94;113513;1238;21942;-80
2023/04/21 10:24:06;;;;;;;8.90;5.40;;;;;;;26.45;21.25;100734.86;113654;1238;21951;-80
2023/04/21 10:26:37;;;;;;;9.00;3.60;;;;;;;26.08;20.61;100732.27;113130;1238;21941;-82
2023/04/21 10:29:14;;;;;;;4.90;3.40;;;;;;;25.41;20.40;100731.84;113218;1238;22013;-79
2023/04/21 10:31:46;;;;;;;5.70;3.50;;;;;;;24.84;20.65;100738.73;112923;1241;22737;-80
2023/04/21 10:34:18;;;;;;;6.60;3.30;;;;;;;24.35;21.18;100728.22;112968;1237;21952;-79
2023/04/21 10:37:11;;;;;;;7.40;4.00;;;;;;;24.18;21.83;100725.43;112565;1242;21934;-81
2023/04/21 10:39:55;;;;;;;9.80;3.80;;;;;;;24.13;21.62;100729.41;112487;1242;21968;-79
2023/04/21 10:42:43;;;;;;;4.70;3.70;;;;;;;23.71;21.58;100725.48;112694;1242;23575;-79
2023/04/21 10:45:13;;;;;;;5.00;4.00;;;;;;;23.39;21.73;100731.80;113211;1237;22411;-78
2023/04/21 10:47:51;;;;;;;5.60;3.90;;;;;;;23.06;21.98;100723.58;113287;1237;22692;-78
2023/04/21 10:50:35;;;;;;;9.20;3.80;;;;;;;22.74;22.53;100722.63;113331;1231;22006;-79
2023/04/21 10:53:25;;;;;;;6.00;4.00;;;;;;;22.50;23.09;100721.79;113356;1237;21935;-80
2023/04/21 10:55:55;;;;;;;11.80;4.10;;;;;;;22.35;23.42;100721.39;113227;1235;21963;-80
2023/04/21 10:58:28;;;;;;;6.50;3.80;;;;;;;22.01;23.45;100713.69;113428;1238;22008;-80
2023/04/21 11:01:02;;;;;;;10.70;4.30;;;;;;;21.58;23.79;100710.87;113487;1237;22809;-80
2023/04/21 11:03:35;;;;;;;8.20;3.90;;;;;;;21.21;24.12;100714.91;113415;1237;21965;-79
2023/04/21 11:06:16;;;;;;;6.70;4.10;;;;;;;20.87;24.67;100710.80;113359;1237;22676;-80
2023/04/21 11:08:57;;;;;;;11.90;5.00;;;;;;;20.62;25.43;100704.53;113551;1237;23007;-85
2023/04/21 11:11:39;;;;;;;13.60;4.90;;;;;;;20.54;26.04;100705.98;112990;1239;21969;-86
2023/04/21 11:14:24;;;;;;;5.50;4.30;;;;;;;20.37;26.12;100709.52;113413;1239;21919;-80
2023/04/21 11:16:57;;;;;;;6.00;3.70;;;;;;;20.18;26.36;100704.86;113374;1240;22248;-85
2023/04/21 11:19:26;;;;;;;8.50;4.00;;;;;;;20.11;26.26;100701.36;113539;1239;22069;-79
2023/04/21 11:21:55;;;;;;;4.50;3.80;;;;;;;20.10;26.22;100707.17;112990;1240;21954;-78
2023/04/21 11:24:23;;;;;;;11.30;4.40;;;;;;;20.02;26.61;100695.92;113154;1239;21953;-79
2023/04/21 11:27:11;;;;;;;7.30;4.10;;;;;;;19.97;26.93;100694.17;113241;1239;21956;-78
2023/04/21 11:29:45;;;;;;;13.40;4.50;;;;;;;19.91;27.26;100685.81;113334;1231;23631;-78
2023/04/21 11:32:15;;;;;;;10.40;4.10;;;;;;;19.90;27.41;100692.94;113516;1231;22407;-78
2023/04/21 11:34:44;;;;;;;7.70;4.20;;;;;;;19.82;27.06;100689.30;113760;1231;21947;-77
2023/04/21 11:37:26;;;;;;;8.70;4.50;;;;;;;19.73;27.31;100690.99;113623;1231;21957;-78
2023/04/21 11:39:59;;;;;;;6.50;3.80;;;;;;;19.62;26.98;100686.55;113827;1231;23590;-77
2023/04/21 11:42:29;;;;;;;17.70;6.90;;;;;;;19.40;26.50;100672.43;113700;1231;21948;-78
2023/04/21 11:45:00;;;;;;;5.40;3.80;;;;;;;19.31;26.76;100677.98;113804;1231;21941;-77
2023/04/21 11:47:28;;;;;;;9.50;3.40;;;;;;;19.25;26.59;100681.94;113097;1237;22054;-79
2023/04/21 11:50:01;;;;;;;5.40;3.60;;;;;;;19.16;26.37;100681.11;113227;1237;21942;-78
2023/04/21 11:52:38;;;;;;;6.90;3.70;;;;;;;19.11;26.46;100678.29;112835;1237;21947;-77
2023/04/21 11:55:17;;;;;;;5.80;3.60;;;;;;;19.07;26.47;100676.23;112930;1237;22566;-78
2023/04/21 11:57:52;;;;;;;5.30;3.80;;;;;;;19.07;26.38;100673.23;113201;1230;21949;-79
2023/04/21 12:00:21;;;;;;;6.00;4.20;;;;;;;19.03;26.45;100665.10;113082;1237;21981;-79
2023/04/21 12:02:59;;;;;;;4.30;3.60;;;;;;;19.05;26.65;100669.55;112630;1242;21979;-80
2023/04/21 12:05:38;;;;;;;3.40;3.10;;;;;;;19.09;26.67;100674.56;112836;1237;22754;-80
2023/04/21 12:08:17;;;;;;;4.10;3.10;;;;;;;19.04;26.52;100669.61;113022;1237;22094;-80
2023/04/21 12:10:58;;;;;;;10.00;3.80;;;;;;;18.98;26.49;100661.70;112892;1237;21969;-78
2023/04/21 12:13:34;;;;;;;7.00;3.70;;;;;;;19.01;26.50;100652.15;112900;1237;21914;-79
2023/04/21 12:16:26;;;;;;;5.40;3.80;;;;;;;19.02;26.66;100652.81;112904;1237;21947;-82
2023/04/21 12:19:06;;;;;;;6.00;3.30;;;;;;;18.95;26.36;100657.16;113207;1237;21939;-79